Terminal Aerodrome Forecast
Issued by NWS Sioux Falls, SD

Home | Current Version | Previous Version | Graphics & Text | Print | Product List | Glossary On
Versions: 1 2 3 4 5 6 7 8 9 10 11 12 13 14 15 16 17 18 19
000
FTUS43 KFSD 041740
TAFHON
TAF
KHON 041740Z 0418/0518 25009KT P6SM SKC
     FM042200 24007KT P6SM SKC
     FM050000 18006KT P6SM SCT250
     FM050400 14011KT P6SM OVC110
     FM051100 16005KT 4SM BR SCT150
     FM051500 20005KT P6SM SCT090=

USA.gov is the U.S. government's official web portal to all federal, state and local government web resources and services.